Portada
METAR-TAF:

METAR-TAF

Aeroports :

Kota Bharu, Malàisia

latitud: 06-10N, longitud: 102-17E, altitud: 5 m

Observació

L'informe es va fer fa 50 minuts, a les 17:00 UTC
Vent 6 kt del Est, variant entre Est/Nord-Est i Sud-Est
Temperatura 26°C
Humitat 84%
Pressió 1015 hPa
Visibilitat 10 km o més
Escasses núvols a una alçada de 2000 ft

METAR: WMKC 211700Z 09006KT 060V140 9999 FEW020 26/23 Q1015

Hora: 01:50 (17:50 UTC)

Pronòstic

L'informe es va fer fa 50 minuts, a les 17:00 UTC
Pronòstic vàlid del 21 a les 18 UTC al 22 a les 18 UTC
Vent 6 kt del Est
Visibilitat 10 km o més
Escasses núvols a una alçada de 2000 ft
Evolucionant progressivament
l' 21 a les 22 UTC al 22 a les 00 UTC
Escasses núvols a una alçada de 1800 ft

TAF: WMKC 211700Z 2118/2218 09006KT 9999 FEW020 BECMG 2122/2200 FEW018

Observacions i pronòstics meteorològics de més de 4000 aeroports (METAR i TAF).

Les estacions disponibles són els punts grocs i vermells al mapa.

Posi el ratolí al punt desitjat per veure el nom de l'estació.

Feu clic per veure les observacions i els pronòstics meteorològics.

Per canviar el mapa: feu clic els botons verds amb una creu de color negre per apropar; al botó verd amb un guió per allunyar la imatge; o en les fletxes verdes per a mapes adjacents.


METAR-TAF: